Hinojosa Del Duque, Spain
Current Conditions -  °F | °C
As of 1:00 PM on Thursday 29 Jan 2015 (Local Time) from LEBA Reporting Station
Scattered Clouds Scattered Clouds  
Wind Chill: 46°   Ceiling: Unl
Heat Index: 46°   Visibility: 4mi
Dew Point: 43°   Wind: 1mph
Humidity: 87%   Direction: NA
Pressure: 30.18"   Gusts: NA
Location:  38.5°N, 5.15°W
Report Text: LEBA 291200Z VRB01KT 6000 SCT001 SCT006 08/06 Q1022
Loading
Personal Weather Stations






























Interactive Weather Map New forecast layout! Learn more

10-Day Weather Forecast

Advertisements
Track Severe Weather on mobile